Time;durP1;ratioP1;P1;durP2;ratioP2;P2;SDS_P1;SDS_P2;PMS_P1;PMS_P2;Temp;Humidity;BMP_temperature;BMP_pressure;BME280_temperature;BME280_humidity;BME280_pressure;Samples;Min_cycle;Max_cycle;Signal;HPM_P1;HPM_P2
2021/10/04 00:00:06;;;;;;;1.20;1.10;;;13.80;99.90;;;;;;5031284;28;20257;-82
2021/10/04 00:02:32;;;;;;;1.30;1.20;;;13.60;99.90;;;;;;5036687;28;20451;-83
2021/10/04 00:04:57;;;;;;;1.30;1.20;;;13.60;99.90;;;;;;5036479;28;20454;-82
2021/10/04 00:07:23;;;;;;;1.60;1.50;;;13.50;99.90;;;;;;5032260;28;20199;-83
2021/10/04 00:09:48;;;;;;;1.50;1.40;;;13.60;99.90;;;;;;5029550;28;20186;-82
2021/10/04 00:12:14;;;;;;;1.33;1.27;;;13.50;99.90;;;;;;5030534;28;20187;-82
2021/10/04 00:14:40;;;;;;;1.27;1.17;;;13.50;99.90;;;;;;5030438;28;20335;-83
2021/10/04 00:17:06;;;;;;;1.23;1.13;;;13.60;99.90;;;;;;5037270;28;20526;-83
2021/10/04 00:19:32;;;;;;;1.40;1.30;;;13.60;99.90;;;;;;5034714;28;20284;-82
2021/10/04 00:21:57;;;;;;;1.53;1.43;;;13.70;99.90;;;;;;5031307;28;20967;-82
2021/10/04 00:24:23;;;;;;;1.00;0.90;;;13.60;99.90;;;;;;5030055;28;20191;-81
2021/10/04 00:26:49;;;;;;;1.27;1.20;;;13.60;99.90;;;;;;5030370;28;20261;-81
2021/10/04 00:29:17;;;;;;;1.30;1.20;;;13.50;99.90;;;;;;5032533;28;20441;-81
2021/10/04 00:31:42;;;;;;;1.30;1.20;;;13.80;99.90;;;;;;5034830;28;20567;-81
2021/10/04 00:34:08;;;;;;;1.40;1.30;;;13.50;99.90;;;;;;5029056;28;20442;-81
2021/10/04 00:36:33;;;;;;;1.03;1.00;;;13.80;99.90;;;;;;5029413;28;20190;-81
2021/10/04 00:38:59;;;;;;;1.27;1.17;;;13.40;99.90;;;;;;5035998;28;20302;-81
2021/10/04 00:41:25;;;;;;;1.23;1.13;;;13.30;99.90;;;;;;5032148;28;20645;-81
2021/10/04 00:43:50;;;;;;;1.33;1.23;;;13.60;99.90;;;;;;5034004;28;20222;-81
2021/10/04 00:46:16;;;;;;;1.30;1.20;;;13.60;99.90;;;;;;5028608;28;20294;-81
2021/10/04 00:48:41;;;;;;;1.63;1.53;;;13.40;99.90;;;;;;5028260;28;20191;-81
2021/10/04 00:51:07;;;;;;;1.30;1.20;;;13.50;99.90;;;;;;5042764;28;20194;-81
2021/10/04 00:53:32;;;;;;;1.40;1.30;;;13.70;99.90;;;;;;5028417;28;20190;-81
2021/10/04 00:55:58;;;;;;;1.67;1.30;;;13.60;99.90;;;;;;5032243;28;20204;-81
2021/10/04 00:58:24;;;;;;;1.50;1.40;;;13.60;99.90;;;;;;5028419;28;20207;-81
2021/10/04 01:00:49;;;;;;;1.40;1.30;;;13.80;99.90;;;;;;5031281;28;20203;-81
2021/10/04 01:03:27;;;;;;;1.53;1.20;;;13.50;99.90;;;;;;5029173;28;20282;-81
2021/10/04 01:05:52;;;;;;;1.40;1.20;;;13.60;99.90;;;;;;5032431;28;20223;-81
2021/10/04 01:08:18;;;;;;;1.37;1.27;;;13.30;99.90;;;;;;5031913;28;20444;-81
2021/10/04 01:10:43;;;;;;;1.10;1.10;;;13.40;99.90;;;;;;5040942;28;20216;-81
2021/10/04 01:13:09;;;;;;;1.30;1.20;;;13.60;99.90;;;;;;5032311;28;20237;-81
2021/10/04 01:15:35;;;;;;;1.40;1.30;;;13.60;99.90;;;;;;5032824;28;20342;-81
2021/10/04 01:18:00;;;;;;;1.47;1.37;;;13.50;99.90;;;;;;5032211;28;20244;-81
2021/10/04 01:20:27;;;;;;;1.70;1.03;;;13.40;99.90;;;;;;5042410;28;20390;-81
2021/10/04 01:22:54;;;;;;;1.30;1.20;;;13.40;99.90;;;;;;5037497;28;20187;-81
2021/10/04 01:25:22;;;;;;;1.60;1.50;;;13.40;99.90;;;;;;5034045;28;21187;-81
2021/10/04 01:27:48;;;;;;;1.70;1.60;;;13.40;99.90;;;;;;5037473;28;20434;-81
2021/10/04 01:30:17;;;;;;;1.90;1.80;;;13.50;99.90;;;;;;5036091;28;20437;-81
2021/10/04 01:32:43;;;;;;;1.60;1.37;;;13.40;99.90;;;;;;5036278;28;20447;-81
2021/10/04 01:35:09;;;;;;;1.37;1.27;;;13.40;99.90;;;;;;5035525;28;20513;-81
2021/10/04 01:37:35;;;;;;;1.40;1.30;;;13.30;99.90;;;;;;5034933;28;20445;-81
2021/10/04 01:40:03;;;;;;;1.57;1.20;;;13.40;99.90;;;;;;5041373;28;20487;-81
2021/10/04 01:42:28;;;;;;;1.93;1.83;;;13.50;99.90;;;;;;5035490;28;20459;-81
2021/10/04 01:44:54;;;;;;;2.03;1.70;;;13.50;99.90;;;;;;5031657;28;20449;-80
2021/10/04 01:47:19;;;;;;;1.70;1.40;;;13.60;99.90;;;;;;5032040;28;20642;-80
2021/10/04 01:49:45;;;;;;;1.47;1.37;;;13.60;99.90;;;;;;5035860;28;20197;-81
2021/10/04 01:52:12;;;;;;;1.47;1.17;;;13.40;99.90;;;;;;5038432;28;20212;-80
2021/10/04 01:54:39;;;;;;;2.07;1.37;;;13.60;99.90;;;;;;5032933;28;20628;-80
2021/10/04 01:57:05;;;;;;;1.50;1.40;;;13.40;99.90;;;;;;5032409;28;20816;-81
2021/10/04 01:59:30;;;;;;;1.60;1.50;;;13.40;99.90;;;;;;5032404;28;20471;-80
2021/10/04 02:01:56;;;;;;;1.20;1.10;;;13.40;99.90;;;;;;5035760;28;20448;-81
2021/10/04 02:04:21;;;;;;;1.43;1.33;;;13.20;99.90;;;;;;5038442;28;20285;-80
2021/10/04 02:06:49;;;;;;;2.07;1.33;;;13.40;99.90;;;;;;5039284;28;20254;-80
2021/10/04 02:09:16;;;;;;;1.30;1.20;;;13.50;99.90;;;;;;5031547;28;20190;-80
2021/10/04 02:11:42;;;;;;;1.63;1.20;;;13.50;99.90;;;;;;5038204;28;20432;-80
2021/10/04 02:14:07;;;;;;;1.83;1.73;;;13.30;99.90;;;;;;5036100;28;20495;-80
2021/10/04 02:16:33;;;;;;;1.33;1.27;;;13.10;99.90;;;;;;5031885;28;20223;-80
2021/10/04 02:18:58;;;;;;;1.40;1.30;;;13.10;99.90;;;;;;5037655;28;20240;-79
2021/10/04 02:21:24;;;;;;;1.77;1.20;;;13.10;99.90;;;;;;5035069;28;20217;-80
2021/10/04 02:23:49;;;;;;;1.23;1.13;;;13.10;99.90;;;;;;5035484;28;20187;-80
2021/10/04 02:26:15;;;;;;;1.13;1.00;;;13.10;99.90;;;;;;5041907;28;21280;-79
2021/10/04 02:28:40;;;;;;;1.13;1.03;;;13.00;99.90;;;;;;5031301;28;20654;-78
2021/10/04 02:31:06;;;;;;;1.10;0.90;;;13.00;99.90;;;;;;5037999;28;20572;-79
2021/10/04 02:33:31;;;;;;;1.13;1.10;;;12.90;99.90;;;;;;5031638;28;20751;-79
2021/10/04 02:35:57;;;;;;;1.00;0.90;;;12.60;99.90;;;;;;5032301;28;20187;-79
2021/10/04 02:38:23;;;;;;;1.00;0.90;;;12.70;99.90;;;;;;5031585;28;20190;-79
2021/10/04 02:40:49;;;;;;;1.20;1.10;;;12.70;99.90;;;;;;5032442;28;20646;-78
2021/10/04 02:43:18;;;;;;;1.20;1.10;;;12.60;99.90;;;;;;5034171;28;20606;-78
2021/10/04 02:45:45;;;;;;;1.30;1.20;;;12.60;99.90;;;;;;5034235;28;20449;-78
2021/10/04 02:48:11;;;;;;;1.13;1.03;;;12.50;99.90;;;;;;5030826;28;20788;-79
2021/10/04 02:50:37;;;;;;;0.93;0.93;;;12.50;99.90;;;;;;5036386;28;20449;-79
2021/10/04 02:53:03;;;;;;;1.07;1.07;;;12.70;99.90;;;;;;5033093;28;20693;-79
2021/10/04 02:55:28;;;;;;;1.03;1.00;;;12.40;99.90;;;;;;5033353;28;20460;-79
2021/10/04 02:57:54;;;;;;;1.30;1.20;;;12.20;99.90;;;;;;5030227;28;20184;-79
2021/10/04 03:00:19;;;;;;;1.30;1.13;;;12.30;99.90;;;;;;5034369;28;20239;-78
2021/10/04 03:02:45;;;;;;;1.30;1.20;;;12.40;99.90;;;;;;5030506;28;20241;-79
2021/10/04 03:05:11;;;;;;;0.90;0.90;;;12.10;99.90;;;;;;5030913;28;20261;-79
2021/10/04 03:07:36;;;;;;;1.10;1.00;;;12.30;99.90;;;;;;5032200;28;20260;-80
2021/10/04 03:10:03;;;;;;;1.23;1.13;;;12.10;99.90;;;;;;5030353;28;20634;-80
2021/10/04 03:12:29;;;;;;;0.93;0.80;;;12.40;99.90;;;;;;5031147;28;20538;-80
2021/10/04 03:14:55;;;;;;;0.87;0.87;;;12.20;99.90;;;;;;5031229;28;20198;-81
2021/10/04 03:17:20;;;;;;;1.20;1.10;;;12.20;99.90;;;;;;5035358;28;20187;-83
2021/10/04 03:19:46;;;;;;;1.13;1.03;;;12.30;99.90;;;;;;5032591;28;20271;-82
2021/10/04 03:22:11;;;;;;;0.90;0.90;;;12.30;99.90;;;;;;5030133;28;20587;-83
2021/10/04 03:24:37;;;;;;;0.90;0.90;;;12.00;99.90;;;;;;5035311;28;20272;-84
2021/10/04 03:27:03;;;;;;;1.00;0.90;;;12.00;99.90;;;;;;5039773;28;20186;-83
2021/10/04 03:29:28;;;;;;;1.33;1.23;;;12.20;99.90;;;;;;5029632;28;20203;-83
2021/10/04 03:31:54;;;;;;;0.90;0.90;;;12.40;99.90;;;;;;5037409;28;20211;-82
2021/10/04 03:34:20;;;;;;;0.97;0.87;;;12.00;99.90;;;;;;5036388;28;20189;-82
2021/10/04 03:36:45;;;;;;;1.03;1.00;;;12.00;99.90;;;;;;5030931;28;20525;-82
2021/10/04 03:39:12;;;;;;;1.17;1.10;;;12.10;99.90;;;;;;5040211;28;20220;-82
2021/10/04 03:41:38;;;;;;;1.00;0.93;;;12.20;99.90;;;;;;5033386;28;20186;-82
2021/10/04 03:44:04;;;;;;;1.02;1.00;;;12.00;99.90;;;;;;5033856;28;20462;-82
2021/10/04 03:46:30;;;;;;;0.95;0.95;;;12.00;99.90;;;;;;5031070;28;20211;-82
2021/10/04 03:48:56;;;;;;;1.13;1.07;;;11.90;99.90;;;;;;5037427;28;20276;-82
2021/10/04 03:51:22;;;;;;;1.17;1.07;;;11.90;99.90;;;;;;5031591;28;20433;-82
2021/10/04 03:53:48;;;;;;;1.15;1.00;;;12.30;99.90;;;;;;5032403;28;20186;-81
2021/10/04 03:56:14;;;;;;;0.90;0.90;;;11.90;99.90;;;;;;5040619;28;20199;-81
2021/10/04 03:58:40;;;;;;;1.20;1.10;;;12.20;99.90;;;;;;5032451;28;20300;-82
2021/10/04 04:01:06;;;;;;;0.93;0.93;;;12.10;99.90;;;;;;5036850;28;20947;-83
2021/10/04 04:03:31;;;;;;;1.47;0.90;;;11.90;99.90;;;;;;5030437;28;20191;-84
2021/10/04 04:05:57;;;;;;;1.10;1.10;;;11.90;99.90;;;;;;5039866;28;20235;-84
2021/10/04 04:08:23;;;;;;;0.70;0.70;;;12.00;99.90;;;;;;5047300;28;20190;-85
2021/10/04 04:10:48;;;;;;;1.03;1.03;;;12.20;99.90;;;;;;5038712;28;20168;-86
2021/10/04 04:13:14;;;;;;;1.27;1.17;;;11.90;99.90;;;;;;5037123;28;20644;-85
2021/10/04 04:15:39;;;;;;;1.37;1.00;;;12.00;99.90;;;;;;5032300;28;20256;-85
2021/10/04 04:18:05;;;;;;;1.40;1.30;;;12.20;99.90;;;;;;5036042;28;20183;-84
2021/10/04 04:20:31;;;;;;;1.13;1.13;;;12.00;99.90;;;;;;5036516;28;20211;-77
2021/10/04 04:22:56;;;;;;;1.13;1.00;;;11.90;99.90;;;;;;5028565;28;20276;-77
2021/10/04 04:25:22;;;;;;;1.30;1.20;;;11.80;99.90;;;;;;5033788;28;20269;-78
2021/10/04 04:27:48;;;;;;;1.40;1.13;;;12.20;99.90;;;;;;5036529;28;20218;-77
2021/10/04 04:30:15;;;;;;;1.20;1.10;;;11.90;99.90;;;;;;5037209;28;20191;-77
2021/10/04 04:32:41;;;;;;;1.20;1.10;;;12.30;99.90;;;;;;5034357;28;20251;-77
2021/10/04 04:35:08;;;;;;;2.45;1.10;;;11.90;99.90;;;;;;5033175;28;20190;-76
2021/10/04 04:37:36;;;;;;;1.00;1.00;;;11.90;99.90;;;;;;5038783;28;20206;-76
2021/10/04 04:40:07;;;;;;;1.30;1.20;;;11.90;99.90;;;;;;5033883;28;20233;-76
2021/10/04 04:42:33;;;;;;;1.10;1.03;;;12.20;99.90;;;;;;5039776;28;20587;-77
2021/10/04 04:44:58;;;;;;;1.00;1.00;;;12.00;99.90;;;;;;5030986;28;20536;-77
2021/10/04 04:47:24;;;;;;;1.47;1.37;;;12.00;99.90;;;;;;5032624;28;20265;-77
2021/10/04 04:49:50;;;;;;;1.20;1.10;;;12.40;99.90;;;;;;5038456;28;20285;-77
2021/10/04 04:52:15;;;;;;;1.10;1.00;;;12.00;99.90;;;;;;5031536;28;20187;-77
2021/10/04 04:54:41;;;;;;;1.10;1.03;;;12.20;99.90;;;;;;5028522;28;20195;-77
2021/10/04 04:57:07;;;;;;;1.40;1.23;;;12.10;99.90;;;;;;5030588;28;20225;-76
2021/10/04 04:59:34;;;;;;;1.17;1.07;;;12.30;99.90;;;;;;5030705;28;20843;-77
2021/10/04 05:02:00;;;;;;;1.55;1.45;;;12.20;99.90;;;;;;5035612;28;20738;-77
2021/10/04 05:04:28;;;;;;;1.55;1.45;;;12.30;99.90;;;;;;5031948;28;20196;-77
2021/10/04 05:06:53;;;;;;;1.50;1.40;;;12.30;99.90;;;;;;5033518;28;20223;-76
2021/10/04 05:09:19;;;;;;;1.70;1.20;;;12.10;99.90;;;;;;5028974;28;20453;-82
2021/10/04 05:11:44;;;;;;;1.40;1.00;;;12.30;99.90;;;;;;5032549;28;20212;-80
2021/10/04 05:14:10;;;;;;;1.03;1.03;;;12.20;99.90;;;;;;5030020;28;20212;-75
2021/10/04 05:16:35;;;;;;;1.40;1.30;;;12.00;99.90;;;;;;5032031;28;20744;-76
2021/10/04 05:19:01;;;;;;;1.30;1.30;;;12.20;99.90;;;;;;5030484;28;20207;-76
2021/10/04 05:21:26;;;;;;;1.00;1.00;;;12.30;99.90;;;;;;5031707;28;20194;-76
2021/10/04 05:23:52;;;;;;;1.50;1.20;;;12.20;99.90;;;;;;5035519;28;20185;-76
2021/10/04 05:26:18;;;;;;;2.53;2.33;;;12.30;99.90;;;;;;5032019;28;20267;-76
2021/10/04 05:28:43;;;;;;;3.30;3.00;;;12.20;99.90;;;;;;5027023;28;20230;-76
2021/10/04 05:31:09;;;;;;;3.00;2.80;;;12.20;99.90;;;;;;5030199;28;20488;-76
2021/10/04 05:33:36;;;;;;;2.80;2.60;;;12.40;99.90;;;;;;5036093;28;20190;-76
2021/10/04 05:36:04;;;;;;;2.90;2.70;;;12.10;99.90;;;;;;5031618;28;20205;-76
2021/10/04 05:38:29;;;;;;;4.80;4.50;;;12.20;99.90;;;;;;5030951;28;21020;-76
2021/10/04 05:40:55;;;;;;;4.20;3.90;;;12.20;99.90;;;;;;5035560;28;20194;-76
2021/10/04 05:43:20;;;;;;;2.87;2.67;;;12.20;99.90;;;;;;5041487;28;20180;-76
2021/10/04 05:45:46;;;;;;;2.17;1.97;;;12.30;99.90;;;;;;5038827;28;20207;-76
2021/10/04 05:48:11;;;;;;;1.87;1.77;;;12.20;99.90;;;;;;5036155;28;20175;-76
2021/10/04 05:50:37;;;;;;;1.53;1.40;;;12.20;99.90;;;;;;5030455;28;20187;-76
2021/10/04 05:53:02;;;;;;;1.53;1.43;;;12.10;99.90;;;;;;5034881;28;20225;-76
2021/10/04 05:55:28;;;;;;;1.20;1.20;;;12.20;99.90;;;;;;5034264;28;20238;-76
2021/10/04 05:57:53;;;;;;;1.70;1.60;;;12.20;99.90;;;;;;5036481;28;20672;-76
2021/10/04 06:00:19;;;;;;;1.77;1.67;;;12.20;99.90;;;;;;5041239;28;20619;-76
2021/10/04 06:02:45;;;;;;;1.40;1.30;;;12.30;99.90;;;;;;5040219;28;20187;-78
2021/10/04 06:05:10;;;;;;;1.77;1.23;;;12.30;99.90;;;;;;5034561;28;20594;-77
2021/10/04 06:07:37;;;;;;;1.17;1.10;;;12.20;99.90;;;;;;5033805;28;20281;-77
2021/10/04 06:10:07;;;;;;;1.45;1.35;;;12.10;99.90;;;;;;5034631;28;20441;-77
2021/10/04 06:12:33;;;;;;;1.50;1.40;;;12.10;99.90;;;;;;5035131;28;20214;-78
2021/10/04 06:15:00;;;;;;;1.20;1.10;;;12.20;99.90;;;;;;5034757;28;20733;-77
2021/10/04 06:17:27;;;;;;;1.10;1.10;;;12.10;99.90;;;;;;5039754;28;20218;-77
2021/10/04 06:19:53;;;;;;;1.37;1.20;;;12.20;99.90;;;;;;5034985;28;20469;-76
2021/10/04 06:22:19;;;;;;;1.67;1.50;;;12.10;99.90;;;;;;5037699;28;20514;-78
2021/10/04 06:24:45;;;;;;;1.10;1.10;;;12.20;99.90;;;;;;5040251;28;20193;-77
2021/10/04 06:27:10;;;;;;;1.00;1.00;;;12.30;99.90;;;;;;5039051;28;20445;-76
2021/10/04 06:29:37;;;;;;;1.23;1.13;;;12.10;99.90;;;;;;5034500;28;20696;-77
2021/10/04 06:32:04;;;;;;;1.13;1.03;;;12.20;99.90;;;;;;5033086;28;20193;-77
2021/10/04 06:34:30;;;;;;;1.60;1.30;;;12.10;99.90;;;;;;5038640;28;20437;-77
2021/10/04 06:36:55;;;;;;;0.90;0.90;;;12.30;99.90;;;;;;5036748;28;20191;-77
2021/10/04 06:39:21;;;;;;;1.40;1.23;;;12.30;99.90;;;;;;5036021;28;20670;-76
2021/10/04 06:41:46;;;;;;;1.33;1.23;;;12.50;99.90;;;;;;5029399;28;20187;-76
2021/10/04 06:44:12;;;;;;;1.63;1.53;;;12.60;99.90;;;;;;5033485;28;20210;-75
2021/10/04 06:46:38;;;;;;;1.10;1.07;;;12.80;99.90;;;;;;5038587;28;20660;-75
2021/10/04 06:49:05;;;;;;;2.53;1.30;;;12.30;99.90;;;;;;5039000;28;20198;-76
2021/10/04 06:51:30;;;;;;;1.40;1.30;;;12.30;99.90;;;;;;5037354;28;20433;-76
2021/10/04 06:53:56;;;;;;;1.77;1.53;;;12.60;99.90;;;;;;5043579;28;20433;-76
2021/10/04 06:56:22;;;;;;;1.30;1.20;;;12.60;99.90;;;;;;5037051;28;20442;-75
2021/10/04 06:58:47;;;;;;;1.50;1.40;;;12.80;99.90;;;;;;5037621;28;20209;-75
2021/10/04 07:01:13;;;;;;;1.40;1.30;;;12.70;99.90;;;;;;5037194;28;20602;-75
2021/10/04 07:03:38;;;;;;;1.30;1.20;;;12.70;99.90;;;;;;5039708;28;20236;-75
2021/10/04 07:06:04;;;;;;;1.17;1.07;;;12.90;99.90;;;;;;5037937;28;20316;-75
2021/10/04 07:08:30;;;;;;;1.33;1.23;;;12.60;99.90;;;;;;5042207;28;20240;-75
2021/10/04 07:10:55;;;;;;;2.83;1.23;;;12.90;99.90;;;;;;5043463;28;20190;-75
2021/10/04 07:13:21;;;;;;;1.20;1.20;;;12.90;99.90;;;;;;5037244;28;20801;-75
2021/10/04 07:15:47;;;;;;;1.73;1.40;;;12.50;99.90;;;;;;5034383;28;20186;-75
2021/10/04 07:18:12;;;;;;;1.57;1.33;;;12.60;99.90;;;;;;5034006;28;20193;-75
2021/10/04 07:20:38;;;;;;;1.70;1.60;;;12.90;99.90;;;;;;5043338;28;20707;-75
2021/10/04 07:23:04;;;;;;;1.60;1.50;;;12.80;99.90;;;;;;5033849;28;20183;-76
2021/10/04 07:25:30;;;;;;;1.43;1.33;;;12.90;99.90;;;;;;5036785;28;20270;-76
2021/10/04 07:27:56;;;;;;;1.63;1.53;;;13.20;99.90;;;;;;5038015;28;20799;-76
2021/10/04 07:30:22;;;;;;;1.73;1.63;;;13.30;99.90;;;;;;5032465;28;20438;-76
2021/10/04 07:32:48;;;;;;;2.73;1.87;;;13.40;99.90;;;;;;5037060;28;20219;-76
2021/10/04 07:35:13;;;;;;;2.00;1.80;;;13.30;99.90;;;;;;5040152;28;21078;-76
2021/10/04 07:37:39;;;;;;;1.67;1.57;;;13.40;99.90;;;;;;5036164;28;20547;-76
2021/10/04 07:40:06;;;;;;;1.50;1.40;;;13.30;99.90;;;;;;5037534;28;20222;-77
2021/10/04 07:42:31;;;;;;;1.60;1.50;;;13.30;99.90;;;;;;5037231;28;20187;-76
2021/10/04 07:44:57;;;;;;;1.70;1.60;;;13.50;99.90;;;;;;5035074;28;20971;-76
2021/10/04 07:47:23;;;;;;;1.40;1.30;;;13.30;99.90;;;;;;5045923;28;20270;-76
2021/10/04 07:49:48;;;;;;;1.30;1.20;;;13.40;99.90;;;;;;5036251;28;20194;-75
2021/10/04 07:52:14;;;;;;;1.50;1.40;;;13.30;99.90;;;;;;5038365;28;20191;-76
2021/10/04 07:54:40;;;;;;;1.27;1.10;;;13.00;99.90;;;;;;5032683;28;20254;-77
2021/10/04 07:57:06;;;;;;;1.97;1.37;;;13.00;99.90;;;;;;5030822;28;20194;-77
2021/10/04 07:59:31;;;;;;;1.37;1.27;;;13.20;99.90;;;;;;5034385;28;20485;-77
2021/10/04 08:01:57;;;;;;;2.03;1.20;;;13.10;99.90;;;;;;5032370;28;20183;-76
2021/10/04 08:04:23;;;;;;;0.97;0.97;;;13.00;99.90;;;;;;5035504;28;20233;-77
2021/10/04 08:06:49;;;;;;;1.60;1.50;;;13.20;99.90;;;;;;5032188;28;20234;-77
2021/10/04 08:09:14;;;;;;;1.57;1.30;;;13.10;99.90;;;;;;5035687;28;20480;-79
2021/10/04 08:11:40;;;;;;;1.27;1.17;;;13.30;99.90;;;;;;5035264;28;20277;-79
2021/10/04 08:14:06;;;;;;;1.47;1.37;;;13.10;99.90;;;;;;5036053;28;20438;-79
2021/10/04 08:16:31;;;;;;;1.53;1.43;;;13.30;99.90;;;;;;5031429;28;20199;-77
2021/10/04 08:18:57;;;;;;;1.80;1.60;;;13.30;99.90;;;;;;5034279;28;20222;-77
2021/10/04 08:21:23;;;;;;;1.77;1.40;;;13.40;99.90;;;;;;5031463;28;20615;-77
2021/10/04 08:23:51;;;;;;;1.87;1.30;;;13.00;99.90;;;;;;5032944;28;20195;-76
2021/10/04 08:26:17;;;;;;;2.03;1.70;;;13.20;99.90;;;;;;5031349;28;20437;-77
2021/10/04 08:28:43;;;;;;;1.80;1.70;;;13.40;99.90;;;;;;5033132;28;20785;-77
2021/10/04 08:31:08;;;;;;;2.13;1.57;;;13.50;99.90;;;;;;5040292;28;20502;-77
2021/10/04 08:33:35;;;;;;;1.80;1.70;;;13.50;99.90;;;;;;5038218;28;20191;-76
2021/10/04 08:36:00;;;;;;;2.57;2.37;;;13.50;99.90;;;;;;5037748;28;20206;-76
2021/10/04 08:38:28;;;;;;;2.30;2.10;;;13.60;99.90;;;;;;5039487;28;20450;-76
2021/10/04 08:40:54;;;;;;;1.63;1.53;;;13.60;99.90;;;;;;5042183;28;21010;-76
2021/10/04 08:43:20;;;;;;;2.43;2.23;;;13.60;99.90;;;;;;5033053;28;20438;-76
2021/10/04 08:45:46;;;;;;;2.03;1.90;;;13.20;99.90;;;;;;5031434;28;20465;-76
2021/10/04 08:48:13;;;;;;;1.80;1.70;;;13.50;99.90;;;;;;5029568;28;20916;-76
2021/10/04 08:50:39;;;;;;;2.60;2.50;;;13.30;99.90;;;;;;5037189;28;20952;-76
2021/10/04 08:53:06;;;;;;;2.07;1.93;;;13.50;99.90;;;;;;5033529;28;20442;-76
2021/10/04 08:55:32;;;;;;;1.93;1.70;;;13.40;99.90;;;;;;5030521;28;20448;-76
2021/10/04 08:57:58;;;;;;;2.23;1.77;;;13.40;99.90;;;;;;5031051;28;20445;-76
2021/10/04 09:00:23;;;;;;;1.93;1.80;;;13.40;99.90;;;;;;5029623;28;20477;-77
2021/10/04 09:02:58;;;;;;;2.27;2.07;;;13.50;99.90;;;;;;5032920;28;20194;-77
2021/10/04 09:05:26;;;;;;;1.77;1.67;;;13.40;99.90;;;;;;5034986;28;20231;-77
2021/10/04 09:08:12;;;;;;;1.93;1.83;;;13.40;99.90;;;;;;5029728;28;20438;-77
2021/10/04 09:10:41;;;;;;;2.20;2.03;;;13.50;99.90;;;;;;5030164;28;20935;-77
2021/10/04 09:13:14;;;;;;;2.07;1.97;;;13.80;99.90;;;;;;5032745;28;20584;-77
2021/10/04 09:15:41;;;;;;;2.10;2.00;;;13.90;99.90;;;;;;5034992;28;20479;-77
2021/10/04 09:18:17;;;;;;;2.00;1.90;;;14.00;99.90;;;;;;5030420;28;20441;-77
2021/10/04 09:21:02;;;;;;;2.30;2.20;;;13.90;99.90;;;;;;5033869;28;20511;-77
2021/10/04 09:23:38;;;;;;;2.20;2.00;;;13.90;99.90;;;;;;5035708;28;20436;-77
2021/10/04 09:26:06;;;;;;;2.77;2.53;;;14.00;99.90;;;;;;5034786;28;20453;-77
2021/10/04 09:28:43;;;;;;;2.73;2.53;;;14.10;99.90;;;;;;5035044;28;20500;-77
2021/10/04 09:31:24;;;;;;;1.97;1.77;;;13.90;99.90;;;;;;5033641;28;20504;-77
2021/10/04 09:34:04;;;;;;;1.80;1.70;;;14.10;99.90;;;;;;5040958;28;20868;-77
2021/10/04 09:36:41;;;;;;;1.87;1.77;;;14.20;99.90;;;;;;5036899;28;20429;-77
2021/10/04 09:39:19;;;;;;;1.73;1.63;;;13.90;99.90;;;;;;5044271;28;20483;-78
2021/10/04 09:42:21;;;;;;;2.50;1.57;;;13.90;99.90;;;;;;5038959;28;20851;-76
2021/10/04 09:44:54;;;;;;;1.70;1.60;;;14.00;99.90;;;;;;5032354;28;20595;-76
2021/10/04 09:47:31;;;;;;;1.77;1.67;;;13.90;99.90;;;;;;5037674;28;20426;-76
2021/10/04 09:50:06;;;;;;;1.03;1.03;;;14.10;99.90;;;;;;5040598;28;20513;-77
2021/10/04 09:52:49;;;;;;;1.10;1.10;;;14.40;99.90;;;;;;5039723;28;20432;-77
2021/10/04 09:55:32;;;;;;;1.17;1.17;;;14.00;99.90;;;;;;5033183;28;20499;-76
2021/10/04 09:57:58;;;;;;;1.63;1.53;;;14.10;99.90;;;;;;5041145;28;20436;-78
2021/10/04 10:00:24;;;;;;;1.20;1.20;;;14.10;99.90;;;;;;5044629;28;20475;-80
2021/10/04 10:02:54;;;;;;;1.40;1.30;;;14.40;99.90;;;;;;5037111;28;20191;-79
2021/10/04 10:05:25;;;;;;;1.10;1.10;;;14.50;99.90;;;;;;5036976;28;20997;-79
2021/10/04 10:07:51;;;;;;;1.07;1.07;;;14.60;99.90;;;;;;5034375;28;20472;-80
2021/10/04 10:10:18;;;;;;;1.00;1.00;;;14.70;99.90;;;;;;5037003;28;20882;-79
2021/10/04 10:12:44;;;;;;;1.70;1.00;;;14.70;99.90;;;;;;5038253;28;20592;-81
2021/10/04 10:15:17;;;;;;;1.10;1.00;;;14.90;99.90;;;;;;5044575;28;20441;-80
2021/10/04 10:17:46;;;;;;;0.87;0.87;;;15.20;99.90;;;;;;5038386;28;20491;-81
2021/10/04 10:20:16;;;;;;;0.60;0.60;;;15.30;99.90;;;;;;5051061;28;20947;-81
2021/10/04 10:22:51;;;;;;;0.80;0.80;;;15.30;99.90;;;;;;5045100;28;20910;-80
2021/10/04 10:25:39;;;;;;;0.77;0.77;;;15.40;99.90;;;;;;5035965;28;20466;-79
2021/10/04 10:28:28;;;;;;;0.80;0.80;;;15.50;99.90;;;;;;5039016;28;20425;-79
2021/10/04 10:30:53;;;;;;;1.00;0.97;;;15.50;99.90;;;;;;5032293;28;20492;-77
2021/10/04 10:33:45;;;;;;;0.80;0.80;;;15.40;99.90;;;;;;5036475;28;20421;-77
2021/10/04 10:36:10;;;;;;;1.17;1.10;;;15.60;99.90;;;;;;5039629;28;20187;-78
2021/10/04 10:38:56;;;;;;;1.00;1.00;;;15.60;99.90;;;;;;5033546;28;20517;-78
2021/10/04 10:41:22;;;;;;;1.20;0.97;;;15.50;99.90;;;;;;5034705;28;20175;-78
2021/10/04 10:44:11;;;;;;;0.77;0.77;;;15.60;99.90;;;;;;5033790;28;21219;-79
2021/10/04 10:46:52;;;;;;;1.30;0.87;;;15.40;99.90;;;;;;5035323;28;20190;-78
2021/10/04 10:49:55;;;;;;;1.10;1.00;;;15.60;99.90;;;;;;5038914;28;20505;-78
2021/10/04 10:52:23;;;;;;;1.53;1.20;;;15.50;99.90;;;;;;5033808;28;20465;-77
2021/10/04 10:54:49;;;;;;;1.83;1.10;;;15.30;99.90;;;;;;5033132;28;20594;-78
2021/10/04 10:57:15;;;;;;;1.00;0.90;;;15.40;99.90;;;;;;5041940;28;20973;-78
2021/10/04 10:59:40;;;;;;;0.90;0.90;;;14.90;99.90;;;;;;5034368;28;20466;-77
2021/10/04 11:02:26;;;;;;;1.10;0.93;;;15.10;99.90;;;;;;5033543;28;20922;-78
2021/10/04 11:04:52;;;;;;;0.80;0.80;;;15.10;99.90;;;;;;5033586;28;20540;-78
2021/10/04 11:07:54;;;;;;;1.67;1.60;;;15.20;99.90;;;;;;5030621;28;20432;-78
2021/10/04 11:10:20;;;;;;;2.17;1.03;;;15.10;99.90;;;;;;5029321;28;20195;-78
2021/10/04 11:13:07;;;;;;;0.87;0.87;;;14.90;99.90;;;;;;5031953;28;20954;-77
2021/10/04 11:15:34;;;;;;;1.00;0.80;;;14.70;99.90;;;;;;5035618;28;20190;-78
2021/10/04 11:17:59;;;;;;;0.87;0.87;;;14.70;99.90;;;;;;5032673;28;20430;-77
2021/10/04 11:20:25;;;;;;;0.93;0.70;;;14.70;99.90;;;;;;5033861;28;20850;-78
2021/10/04 11:23:05;;;;;;;0.90;0.90;;;14.70;99.90;;;;;;5030909;28;20190;-78
2021/10/04 11:25:43;;;;;;;1.30;1.17;;;14.80;99.90;;;;;;5035613;28;20218;-78
2021/10/04 11:28:10;;;;;;;1.10;1.00;;;14.70;99.90;;;;;;5036108;28;20448;-77
2021/10/04 11:31:28;;;;;;;1.27;1.00;;;14.70;99.90;;;;;;5033670;28;20442;-78
2021/10/04 11:34:00;;;;;;;1.10;1.10;;;14.40;99.90;;;;;;5034036;28;20441;-78
2021/10/04 11:36:39;;;;;;;1.37;1.03;;;14.50;99.90;;;;;;5037559;28;20448;-78
2021/10/04 11:39:08;;;;;;;0.90;0.90;;;14.20;99.90;;;;;;5037548;28;20464;-78
2021/10/04 11:41:36;;;;;;;0.80;0.80;;;14.80;99.90;;;;;;5040801;28;20964;-78
2021/10/04 11:44:05;;;;;;;0.77;0.77;;;14.80;99.90;;;;;;5037602;28;20551;-78
2021/10/04 11:46:40;;;;;;;0.80;0.80;;;14.80;99.90;;;;;;5032868;28;20442;-78
2021/10/04 11:49:12;;;;;;;1.00;0.97;;;14.90;99.90;;;;;;5032024;28;20452;-78
2021/10/04 11:51:45;;;;;;;1.30;1.30;;;15.10;99.90;;;;;;5030194;28;21030;-78
2021/10/04 11:54:48;;;;;;;1.23;1.07;;;14.90;99.90;;;;;;5031037;28;20442;-78
2021/10/04 11:57:28;;;;;;;1.37;1.27;;;14.60;99.90;;;;;;5012130;28;20449;-77
2021/10/04 11:59:57;;;;;;;1.77;1.67;;;15.10;99.90;;;;;;5036775;28;20492;-78
2021/10/04 12:02:30;;;;;;;1.70;1.60;;;15.10;99.90;;;;;;5031562;28;20942;-78
2021/10/04 12:05:31;;;;;;;2.27;1.80;;;14.90;99.90;;;;;;5034343;28;20548;-77
2021/10/04 12:08:09;;;;;;;1.70;1.60;;;15.10;99.90;;;;;;5023487;28;20528;-78
2021/10/04 12:10:40;;;;;;;1.60;1.50;;;15.20;99.90;;;;;;5040375;28;20437;-78
2021/10/04 12:13:09;;;;;;;1.50;1.40;;;15.10;99.90;;;;;;5037145;28;20438;-78
2021/10/04 12:15:34;;;;;;;1.20;1.10;;;15.20;99.90;;;;;;5031565;28;20924;-78
2021/10/04 12:18:00;;;;;;;1.63;1.53;;;15.20;99.90;;;;;;5031340;28;20446;-77
2021/10/04 12:20:26;;;;;;;1.53;1.43;;;15.40;99.90;;;;;;5033766;28;20243;-78
2021/10/04 12:22:51;;;;;;;1.60;1.50;;;15.50;99.90;;;;;;5030714;28;20642;-77
2021/10/04 12:25:32;;;;;;;1.90;1.80;;;15.90;99.90;;;;;;5030001;28;20715;-78
2021/10/04 12:28:06;;;;;;;3.20;2.33;;;15.80;99.90;;;;;;5031763;28;20270;-78
2021/10/04 12:30:54;;;;;;;1.50;1.40;;;16.30;99.90;;;;;;5030878;28;20428;-78
2021/10/04 12:33:41;;;;;;;2.03;1.87;;;16.20;99.90;;;;;;5032341;28;20444;-78
2021/10/04 12:36:07;;;;;;;1.50;1.40;;;16.30;99.90;;;;;;5048215;28;20510;-78
2021/10/04 12:38:33;;;;;;;12.70;6.30;;;16.30;99.90;;;;;;5031435;28;20429;-78
2021/10/04 12:41:02;;;;;;;4.70;3.17;;;16.70;99.90;;;;;;5031149;28;20441;-78
2021/10/04 12:43:29;;;;;;;1.70;1.60;;;16.80;99.90;;;;;;5034316;28;20465;-78
2021/10/04 12:46:15;;;;;;;1.67;1.50;;;17.20;99.90;;;;;;5036824;28;20445;-78
2021/10/04 12:48:46;;;;;;;1.80;1.70;;;17.30;99.90;;;;;;5031537;28;20429;-78
2021/10/04 12:51:19;;;;;;;2.50;2.30;;;17.40;99.90;;;;;;5030282;28;20418;-78
2021/10/04 12:53:54;;;;;;;2.30;2.20;;;17.60;99.90;;;;;;5029564;28;20800;-77